Time;durP1;ratioP1;P1;durP2;ratioP2;P2;SDS_P1;SDS_P2;PMS_P1;PMS_P2;Temp;Humidity;BMP_temperature;BMP_pressure;BME280_temperature;BME280_humidity;BME280_pressure;Samples;Min_cycle;Max_cycle;Signal;HPM_P1;HPM_P2
2022/01/17 00:01:02;;;;;;;11.25;3.08;;;;;;;;;;5005602;28;20060;-80
2022/01/17 00:03:28;;;;;;;12.77;2.97;;;;;;;;;;5002923;28;20050;-80
2022/01/17 00:05:54;;;;;;;13.02;3.58;;;;;;;;;;4986870;28;20545;-80
2022/01/17 00:08:20;;;;;;;11.10;3.30;;;;;;;;;;5005395;28;20133;-81
2022/01/17 00:10:47;;;;;;;13.65;3.28;;;;;;;;;;5005994;28;20076;-80
2022/01/17 00:13:22;;;;;;;13.48;3.80;;;;;;;;;;5007831;28;20465;-79
2022/01/17 00:15:52;;;;;;;12.95;3.13;;;;;;;;;;5004195;28;20041;-80
2022/01/17 00:20:45;;;;;;;15.10;3.53;;;;;;;;;;4985143;28;20049;-80
2022/01/17 00:23:12;;;;;;;9.20;2.78;;;;;;;;;;5004130;28;20069;-80
2022/01/17 00:25:38;;;;;;;12.38;2.88;;;;;;;;;;4998260;28;20088;-80
2022/01/17 00:28:04;;;;;;;10.88;3.05;;;;;;;;;;5006899;28;20069;-80
2022/01/17 00:30:30;;;;;;;14.77;3.30;;;;;;;;;;5000023;28;20039;-80
2022/01/17 00:32:56;;;;;;;10.30;3.33;;;;;;;;;;5004950;28;20054;-80
2022/01/17 00:35:24;;;;;;;15.90;3.55;;;;;;;;;;5003823;28;20058;-80
2022/01/17 00:37:50;;;;;;;12.93;2.97;;;;;;;;;;4982338;28;20092;-80
2022/01/17 00:40:22;;;;;;;17.67;3.38;;;;;;;;;;4998608;28;20042;-80
2022/01/17 00:42:48;;;;;;;13.90;3.40;;;;;;;;;;4990693;28;20064;-79
2022/01/17 00:45:15;;;;;;;15.05;3.85;;;;;;;;;;4983026;28;20049;-80
2022/01/17 00:47:41;;;;;;;11.50;3.03;;;;;;;;;;5010205;28;20046;-80
2022/01/17 00:50:08;;;;;;;15.20;3.70;;;;;;;;;;4982712;28;20093;-80
2022/01/17 00:52:34;;;;;;;13.30;4.25;;;;;;;;;;5002820;28;20043;-80
2022/01/17 00:55:00;;;;;;;12.55;3.50;;;;;;;;;;4985440;28;20145;-80
2022/01/17 00:57:26;;;;;;;16.70;3.83;;;;;;;;;;5002213;28;20112;-80
2022/01/17 00:59:52;;;;;;;17.45;3.58;;;;;;;;;;4998017;28;20042;-80
2022/01/17 01:02:20;;;;;;;15.35;3.42;;;;;;;;;;4987789;28;20482;-79
2022/01/17 01:04:46;;;;;;;13.27;4.15;;;;;;;;;;4984963;28;20061;-80
2022/01/17 01:07:12;;;;;;;11.93;3.55;;;;;;;;;;5003493;28;20512;-80
2022/01/17 01:09:53;;;;;;;13.68;3.47;;;;;;;;;;4993253;28;20482;-80
2022/01/17 01:12:19;;;;;;;14.23;3.35;;;;;;;;;;5012431;28;20377;-80
2022/01/17 01:14:46;;;;;;;12.85;3.33;;;;;;;;;;5006867;28;20119;-80
2022/01/17 01:17:30;;;;;;;11.05;3.25;;;;;;;;;;5009317;28;20108;-80
2022/01/17 01:20:12;;;;;;;;;;;;;;;;;;5004122;28;20057;-80
2022/01/17 01:28:08;;;;;;;16.05;3.47;;;;;;;;;;5009255;28;20041;-80
2022/01/17 01:30:39;;;;;;;20.38;3.75;;;;;;;;;;5008903;28;20445;-81
2022/01/17 01:33:05;;;;;;;10.70;3.17;;;;;;;;;;5011262;28;20100;-80
2022/01/17 01:35:33;;;;;;;14.48;3.30;;;;;;;;;;4991260;28;20319;-80
2022/01/17 01:38:00;;;;;;;11.32;2.85;;;;;;;;;;5005445;28;20046;-80
2022/01/17 01:40:26;;;;;;;16.35;4.72;;;;;;;;;;5008807;28;20057;-80
2022/01/17 01:42:53;;;;;;;17.17;3.25;;;;;;;;;;4989683;28;20564;-80
2022/01/17 01:45:21;;;;;;;13.40;3.20;;;;;;;;;;4992050;28;20049;-80
2022/01/17 01:47:47;;;;;;;16.55;3.75;;;;;;;;;;5007211;28;20624;-80
2022/01/17 01:50:13;;;;;;;16.58;3.47;;;;;;;;;;5002786;28;20090;-80
2022/01/17 01:52:41;;;;;;;13.15;3.45;;;;;;;;;;4985542;28;20042;-80
2022/01/17 01:55:08;;;;;;;14.13;3.20;;;;;;;;;;5007945;28;20077;-80
2022/01/17 01:57:34;;;;;;;9.95;3.08;;;;;;;;;;4987360;28;20401;-80
2022/01/17 02:00:01;;;;;;;17.25;3.83;;;;;;;;;;5006094;28;20143;-80
2022/01/17 02:02:27;;;;;;;14.23;3.85;;;;;;;;;;4992249;28;20143;-80
2022/01/17 02:04:53;;;;;;;17.13;3.95;;;;;;;;;;5009076;28;20050;-80
2022/01/17 02:07:20;;;;;;;13.32;4.13;;;;;;;;;;5006461;28;20048;-80
2022/01/17 02:09:46;;;;;;;15.13;3.78;;;;;;;;;;4984077;28;20057;-80
2022/01/17 02:12:21;;;;;;;11.93;3.35;;;;;;;;;;5009829;28;20520;-80
2022/01/17 02:14:48;;;;;;;14.95;3.47;;;;;;;;;;4989893;28;20057;-80
2022/01/17 02:17:15;;;;;;;11.23;3.20;;;;;;;;;;4985436;28;20121;-81
2022/01/17 02:19:46;;;;;;;14.73;3.10;;;;;;;;;;5003328;28;20049;-80
2022/01/17 02:22:13;;;;;;;16.70;3.47;;;;;;;;;;5010524;28;20267;-80
2022/01/17 02:24:39;;;;;;;12.73;3.05;;;;;;;;;;5004072;28;20061;-80
2022/01/17 02:27:05;;;;;;;11.80;3.53;;;;;;;;;;5002614;28;20060;-80
2022/01/17 02:29:32;;;;;;;11.20;3.08;;;;;;;;;;5007194;28;20064;-80
2022/01/17 02:31:58;;;;;;;16.20;4.45;;;;;;;;;;5002732;28;20406;-80
2022/01/17 02:34:24;;;;;;;14.75;3.38;;;;;;;;;;5009764;28;20041;-80
2022/01/17 02:36:50;;;;;;;11.70;3.10;;;;;;;;;;5000997;28;20409;-79
2022/01/17 02:39:16;;;;;;;14.60;3.35;;;;;;;;;;4990859;28;20052;-80
2022/01/17 02:41:46;;;;;;;12.45;3.20;;;;;;;;;;4986214;28;20130;-80
2022/01/17 02:44:12;;;;;;;13.65;3.05;;;;;;;;;;5007710;28;20049;-80
2022/01/17 02:46:38;;;;;;;12.93;3.88;;;;;;;;;;4986137;28;20545;-80
2022/01/17 02:49:05;;;;;;;12.55;3.17;;;;;;;;;;5004131;28;20058;-79
2022/01/17 02:51:31;;;;;;;15.65;3.35;;;;;;;;;;5003641;28;20043;-80
2022/01/17 02:53:58;;;;;;;12.40;3.00;;;;;;;;;;5002102;28;20053;-80
2022/01/17 02:56:24;;;;;;;14.48;3.67;;;;;;;;;;5002832;28;20129;-80
2022/01/17 02:58:50;;;;;;;13.98;3.00;;;;;;;;;;4987637;28;20307;-80
2022/01/17 03:01:19;;;;;;;10.35;3.13;;;;;;;;;;5006135;28;20038;-80
2022/01/17 03:03:45;;;;;;;12.55;2.97;;;;;;;;;;5005651;28;20101;-80
2022/01/17 03:06:12;;;;;;;10.85;4.18;;;;;;;;;;5004355;28;20466;-81
2022/01/17 03:08:38;;;;;;;8.73;3.00;;;;;;;;;;4998797;28;20051;-80
2022/01/17 03:11:05;;;;;;;14.88;3.25;;;;;;;;;;5005847;28;20034;-80
2022/01/17 03:13:33;;;;;;;13.18;3.13;;;;;;;;;;5000454;28;20493;-81
2022/01/17 03:16:01;;;;;;;11.45;3.05;;;;;;;;;;5004397;28;20112;-81
2022/01/17 03:18:28;;;;;;;10.05;3.03;;;;;;;;;;4991020;28;20050;-80
2022/01/17 03:20:54;;;;;;;11.95;3.33;;;;;;;;;;4995967;28;20053;-81
2022/01/17 03:23:20;;;;;;;8.70;3.13;;;;;;;;;;5003472;28;20196;-79
2022/01/17 03:25:46;;;;;;;12.32;3.35;;;;;;;;;;5008994;28;20049;-80
2022/01/17 03:28:18;;;;;;;11.57;2.80;;;;;;;;;;5003757;28;20050;-79
2022/01/17 03:30:44;;;;;;;8.60;2.67;;;;;;;;;;5008175;28;20045;-79
2022/01/17 03:33:12;;;;;;;10.75;3.10;;;;;;;;;;5006454;28;20061;-80
2022/01/17 03:35:39;;;;;;;12.15;3.15;;;;;;;;;;4989575;28;20046;-80
2022/01/17 03:38:11;;;;;;;11.93;2.67;;;;;;;;;;4986518;28;21031;-80
2022/01/17 03:40:37;;;;;;;15.02;3.35;;;;;;;;;;4999892;28;20225;-80
2022/01/17 03:43:04;;;;;;;11.30;3.30;;;;;;;;;;4986764;28;20034;-80
2022/01/17 03:45:30;;;;;;;12.13;2.78;;;;;;;;;;5006410;28;20049;-79
2022/01/17 03:47:57;;;;;;;12.55;3.03;;;;;;;;;;5007036;28;20038;-80
2022/01/17 03:50:23;;;;;;;10.60;3.38;;;;;;;;;;5006444;28;20109;-79
2022/01/17 03:52:50;;;;;;;13.30;3.20;;;;;;;;;;5004370;28;20056;-79
2022/01/17 03:55:18;;;;;;;12.40;3.08;;;;;;;;;;4980716;28;20049;-81
2022/01/17 03:57:44;;;;;;;16.30;3.75;;;;;;;;;;5002351;28;20042;-80
2022/01/17 04:00:15;;;;;;;13.80;3.60;;;;;;;;;;4985948;28;20101;-80
2022/01/17 04:02:41;;;;;;;10.18;3.20;;;;;;;;;;4984614;28;20560;-80
2022/01/17 04:05:07;;;;;;;17.17;3.85;;;;;;;;;;5003272;28;20042;-79
2022/01/17 04:07:33;;;;;;;13.35;4.18;;;;;;;;;;5007705;28;20092;-80
2022/01/17 04:09:59;;;;;;;16.52;4.00;;;;;;;;;;5004263;28;20108;-81
2022/01/17 04:12:25;;;;;;;12.73;3.78;;;;;;;;;;4987084;28;20042;-80
2022/01/17 04:14:54;;;;;;;12.73;3.75;;;;;;;;;;4986888;28;20478;-80
2022/01/17 04:17:21;;;;;;;12.27;3.58;;;;;;;;;;5005218;28;20117;-80
2022/01/17 04:19:52;;;;;;;14.73;4.63;;;;;;;;;;5003131;28;20053;-80
2022/01/17 04:22:18;;;;;;;13.75;3.90;;;;;;;;;;4986488;28;20046;-79
2022/01/17 04:24:44;;;;;;;14.30;3.55;;;;;;;;;;5002863;28;20081;-80
2022/01/17 04:27:10;;;;;;;15.23;4.65;;;;;;;;;;5002773;28;20042;-80
2022/01/17 04:29:39;;;;;;;18.85;3.75;;;;;;;;;;4983480;28;20153;-80
2022/01/17 04:32:08;;;;;;;14.48;3.80;;;;;;;;;;5002607;28;20038;-81
2022/01/17 04:34:34;;;;;;;12.25;3.90;;;;;;;;;;5001369;28;20050;-81
2022/01/17 04:37:02;;;;;;;12.90;4.07;;;;;;;;;;5002861;28;20078;-81
2022/01/17 04:39:28;;;;;;;22.25;4.82;;;;;;;;;;4986074;28;20120;-80
2022/01/17 04:42:05;;;;;;;14.70;4.38;;;;;;;;;;5005272;28;20497;-82
2022/01/17 04:47:16;;;;;;;12.82;4.22;;;;;;;;;;5010317;28;20042;-81
2022/01/17 04:49:42;;;;;;;11.23;4.60;;;;;;;;;;5006214;28;20048;-81
2022/01/17 04:52:12;;;;;;;17.02;4.53;;;;;;;;;;5008245;28;20054;-81
2022/01/17 04:54:40;;;;;;;13.52;4.70;;;;;;;;;;4994164;28;20041;-80
2022/01/17 04:57:07;;;;;;;15.00;4.68;;;;;;;;;;5001849;28;20073;-80
2022/01/17 04:59:33;;;;;;;19.05;4.47;;;;;;;;;;4986945;28;20441;-81
2022/01/17 05:02:00;;;;;;;15.77;4.82;;;;;;;;;;5008696;28;20042;-81
2022/01/17 05:04:27;;;;;;;15.55;4.57;;;;;;;;;;5012181;28;20042;-80
2022/01/17 05:06:54;;;;;;;15.68;4.97;;;;;;;;;;5009088;28;20127;-81
2022/01/17 05:09:20;;;;;;;18.67;4.78;;;;;;;;;;4990894;28;20037;-81
2022/01/17 05:11:46;;;;;;;12.88;4.25;;;;;;;;;;4988868;28;20187;-81
2022/01/17 05:14:13;;;;;;;17.00;4.65;;;;;;;;;;4993566;28;20415;-81
2022/01/17 05:16:48;;;;;;;19.85;5.80;;;;;;;;;;5003141;28;20077;-81
2022/01/17 05:22:08;;;;;;;18.25;6.97;;;;;;;;;;5004870;28;20375;-81
2022/01/17 05:24:34;;;;;;;20.13;4.88;;;;;;;;;;5007557;28;20405;-81
2022/01/17 05:27:00;;;;;;;15.57;4.82;;;;;;;;;;4985951;28;20050;-81
2022/01/17 05:29:26;;;;;;;20.13;5.30;;;;;;;;;;5006907;28;20047;-82
2022/01/17 05:31:53;;;;;;;18.30;4.93;;;;;;;;;;5013008;28;20484;-80
2022/01/17 05:34:19;;;;;;;15.82;4.60;;;;;;;;;;4990827;28;20045;-80
2022/01/17 05:36:45;;;;;;;22.00;5.45;;;;;;;;;;5003084;28;20049;-80
2022/01/17 05:39:11;;;;;;;15.35;4.82;;;;;;;;;;5010790;28;20053;-81
2022/01/17 05:41:40;;;;;;;16.00;4.57;;;;;;;;;;5001696;28;20042;-80
2022/01/17 05:44:06;;;;;;;16.65;4.78;;;;;;;;;;4988938;28;20096;-80
2022/01/17 05:46:32;;;;;;;17.02;4.63;;;;;;;;;;5006074;28;20069;-80
2022/01/17 05:48:59;;;;;;;16.70;4.93;;;;;;;;;;5007920;28;20042;-80
2022/01/17 05:51:27;;;;;;;19.52;4.60;;;;;;;;;;5004604;28;20093;-80
2022/01/17 05:53:56;;;;;;;23.27;5.00;;;;;;;;;;5000626;28;20033;-79
2022/01/17 05:56:22;;;;;;;16.55;5.03;;;;;;;;;;4989215;28;20461;-80
2022/01/17 05:58:48;;;;;;;15.88;4.47;;;;;;;;;;4985670;28;20042;-80
2022/01/17 06:01:17;;;;;;;18.60;5.13;;;;;;;;;;5008429;28;20097;-81
2022/01/17 06:03:43;;;;;;;21.08;5.32;;;;;;;;;;4987306;28;20481;-81
2022/01/17 06:06:09;;;;;;;21.30;5.20;;;;;;;;;;4991851;28;20060;-81
2022/01/17 06:08:35;;;;;;;21.35;4.75;;;;;;;;;;5002256;28;20058;-81
2022/01/17 06:11:01;;;;;;;16.25;4.55;;;;;;;;;;4997420;28;20464;-82
2022/01/17 06:13:27;;;;;;;22.27;5.35;;;;;;;;;;5004770;28;20504;-80
2022/01/17 06:15:53;;;;;;;18.13;4.53;;;;;;;;;;4993394;28;20087;-81
2022/01/17 06:18:19;;;;;;;14.70;4.30;;;;;;;;;;5005714;28;20309;-81
2022/01/17 06:20:45;;;;;;;23.38;5.10;;;;;;;;;;5010970;28;20049;-80
2022/01/17 06:23:11;;;;;;;15.20;5.07;;;;;;;;;;5005097;28;20042;-80
2022/01/17 06:25:37;;;;;;;21.35;4.70;;;;;;;;;;4987704;28;20141;-80
2022/01/17 06:28:03;;;;;;;18.45;4.50;;;;;;;;;;4989367;28;20125;-81
2022/01/17 06:30:29;;;;;;;20.27;5.55;;;;;;;;;;5004750;28;20054;-81
2022/01/17 06:32:56;;;;;;;24.45;5.70;;;;;;;;;;5009399;28;20486;-81
2022/01/17 06:35:22;;;;;;;17.98;5.20;;;;;;;;;;4988653;28;20529;-80
2022/01/17 06:37:57;;;;;;;20.15;5.15;;;;;;;;;;5008499;28;20050;-80
2022/01/17 06:40:23;;;;;;;21.25;5.90;;;;;;;;;;5000695;28;20050;-80
2022/01/17 06:42:53;;;;;;;18.73;5.25;;;;;;;;;;4998403;28;20185;-82
2022/01/17 06:45:28;;;;;;;19.85;5.03;;;;;;;;;;5006714;28;20054;-80
2022/01/17 06:47:54;;;;;;;22.63;5.07;;;;;;;;;;5008121;28;21869;-80
2022/01/17 06:50:20;;;;;;;20.13;5.03;;;;;;;;;;5005002;28;20050;-80
2022/01/17 06:52:46;;;;;;;21.80;4.82;;;;;;;;;;4989788;28;20039;-81
2022/01/17 06:55:13;;;;;;;18.85;5.57;;;;;;;;;;5003294;28;20053;-79
2022/01/17 06:57:39;;;;;;;21.52;5.57;;;;;;;;;;5006255;28;20367;-80
2022/01/17 07:00:10;;;;;;;27.58;4.88;;;;;;;;;;4990846;28;20042;-79
2022/01/17 07:02:36;;;;;;;19.60;5.53;;;;;;;;;;5006781;28;20133;-80
2022/01/17 07:05:03;;;;;;;20.73;5.20;;;;;;;;;;5004178;28;20084;-80
2022/01/17 07:07:29;;;;;;;20.45;5.78;;;;;;;;;;5005083;28;20053;-80
2022/01/17 07:09:58;;;;;;;17.70;5.13;;;;;;;;;;5001020;28;20107;-81
2022/01/17 07:12:24;;;;;;;29.67;5.60;;;;;;;;;;5002613;28;20054;-80
2022/01/17 07:14:50;;;;;;;28.38;4.82;;;;;;;;;;4986760;28;20144;-81
2022/01/17 07:17:16;;;;;;;21.08;5.57;;;;;;;;;;5009879;28;20030;-81
2022/01/17 07:19:42;;;;;;;22.30;5.32;;;;;;;;;;4998783;28;20469;-80
2022/01/17 07:22:09;;;;;;;22.08;5.50;;;;;;;;;;4991455;28;20038;-80
2022/01/17 07:24:36;;;;;;;25.95;6.13;;;;;;;;;;5003880;28;20128;-78
2022/01/17 07:27:02;;;;;;;25.80;6.13;;;;;;;;;;5001252;28;20057;-80
2022/01/17 07:29:28;;;;;;;28.92;5.82;;;;;;;;;;4988853;28;20049;-80
2022/01/17 07:31:55;;;;;;;20.05;5.18;;;;;;;;;;5003053;28;20042;-79
2022/01/17 07:34:21;;;;;;;20.60;4.70;;;;;;;;;;4987748;28;20050;-79
2022/01/17 07:36:48;;;;;;;24.77;5.45;;;;;;;;;;5002709;28;20050;-80
2022/01/17 07:39:14;;;;;;;18.48;5.35;;;;;;;;;;4989693;28;20042;-80
2022/01/17 07:41:40;;;;;;;26.23;5.88;;;;;;;;;;4981581;28;20076;-79
2022/01/17 07:44:08;;;;;;;17.90;5.25;;;;;;;;;;4989549;28;20064;-80
2022/01/17 07:49:10;;;;;;;22.17;5.35;;;;;;;;;;5001643;28;20054;-80
2022/01/17 07:51:41;;;;;;;24.60;5.47;;;;;;;;;;4987408;28;20495;-79
2022/01/17 07:54:08;;;;;;;21.27;5.15;;;;;;;;;;4980705;28;20135;-80
2022/01/17 07:56:35;;;;;;;21.95;5.95;;;;;;;;;;4977620;28;20494;-80
2022/01/17 07:59:01;;;;;;;18.33;5.07;;;;;;;;;;4986392;28;20042;-80
2022/01/17 08:01:28;;;;;;;24.70;5.93;;;;;;;;;;4981996;28;20042;-80
2022/01/17 08:03:54;;;;;;;19.05;5.53;;;;;;;;;;5002031;28;20034;-80
2022/01/17 08:06:20;;;;;;;25.98;5.32;;;;;;;;;;5005190;28;20568;-80
2022/01/17 08:08:47;;;;;;;21.33;5.07;;;;;;;;;;4997985;28;20088;-80
2022/01/17 08:11:13;;;;;;;20.08;4.70;;;;;;;;;;4986904;28;20128;-80
2022/01/17 08:13:39;;;;;;;21.15;4.97;;;;;;;;;;5003237;28;20046;-80
2022/01/17 08:16:05;;;;;;;23.33;5.50;;;;;;;;;;5000112;28;21142;-80
2022/01/17 08:18:31;;;;;;;26.13;5.00;;;;;;;;;;5001490;28;20096;-81
2022/01/17 08:20:58;;;;;;;22.20;5.07;;;;;;;;;;5003564;28;20038;-80
2022/01/17 08:23:24;;;;;;;18.58;5.45;;;;;;;;;;4985671;28;20185;-80
2022/01/17 08:25:50;;;;;;;21.05;4.95;;;;;;;;;;5001969;28;20050;-80
2022/01/17 08:28:16;;;;;;;19.08;5.07;;;;;;;;;;4982665;28;20072;-80
2022/01/17 08:30:43;;;;;;;22.90;5.40;;;;;;;;;;4986775;28;20046;-81
2022/01/17 08:33:12;;;;;;;17.75;5.15;;;;;;;;;;4986073;28;20056;-80
2022/01/17 08:35:38;;;;;;;21.42;5.10;;;;;;;;;;5002185;28;20563;-79
2022/01/17 08:38:04;;;;;;;23.60;5.43;;;;;;;;;;4989751;28;20132;-81
2022/01/17 08:40:30;;;;;;;21.13;5.68;;;;;;;;;;4998666;28;20168;-80
2022/01/17 08:42:56;;;;;;;27.25;5.50;;;;;;;;;;5002094;28;20051;-80
2022/01/17 08:45:23;;;;;;;25.27;5.53;;;;;;;;;;4982883;28;20053;-80
2022/01/17 08:47:51;;;;;;;25.70;5.18;;;;;;;;;;4986974;28;20046;-80
2022/01/17 08:50:19;;;;;;;24.38;5.00;;;;;;;;;;5002321;28;20445;-82
2022/01/17 08:52:45;;;;;;;19.25;5.15;;;;;;;;;;4996360;28;20156;-82
2022/01/17 08:55:11;;;;;;;21.33;5.22;;;;;;;;;;4998889;28;20049;-81
2022/01/17 08:57:37;;;;;;;20.45;5.15;;;;;;;;;;4987892;28;20156;-80
2022/01/17 09:00:09;;;;;;;23.02;4.53;;;;;;;;;;5004532;28;20394;-80
2022/01/17 09:02:35;;;;;;;27.30;5.32;;;;;;;;;;5005125;28;20048;-80
2022/01/17 09:05:01;;;;;;;24.20;5.25;;;;;;;;;;5000377;28;20056;-79
2022/01/17 09:07:27;;;;;;;25.10;5.80;;;;;;;;;;4978309;28;20390;-79
2022/01/17 09:09:54;;;;;;;26.15;5.90;;;;;;;;;;4978279;28;20168;-79
2022/01/17 09:12:20;;;;;;;20.20;5.22;;;;;;;;;;5007386;28;20563;-80
2022/01/17 09:14:46;;;;;;;21.17;5.80;;;;;;;;;;5004947;28;20060;-80
2022/01/17 09:17:12;;;;;;;24.30;5.68;;;;;;;;;;4983593;28;20070;-80
2022/01/17 09:19:41;;;;;;;24.38;5.63;;;;;;;;;;4975656;28;20490;-80
2022/01/17 09:22:08;;;;;;;16.40;4.80;;;;;;;;;;5001917;28;20050;-79
2022/01/17 09:24:35;;;;;;;22.35;5.57;;;;;;;;;;5002518;28;20058;-79
2022/01/17 09:27:01;;;;;;;21.25;5.55;;;;;;;;;;4979699;28;20478;-79
2022/01/17 09:29:27;;;;;;;19.10;5.03;;;;;;;;;;4982152;28;20525;-80
2022/01/17 09:31:53;;;;;;;25.27;5.70;;;;;;;;;;4985972;28;20121;-80
2022/01/17 09:34:19;;;;;;;19.60;5.28;;;;;;;;;;4992180;28;20042;-79
2022/01/17 09:36:45;;;;;;;26.52;5.55;;;;;;;;;;5006624;28;20069;-80
2022/01/17 09:39:12;;;;;;;27.65;5.55;;;;;;;;;;4992801;28;20418;-81
2022/01/17 09:41:38;;;;;;;22.88;5.93;;;;;;;;;;5006154;28;20046;-80
2022/01/17 09:44:05;;;;;;;27.10;5.70;;;;;;;;;;4986407;28;20045;-80
2022/01/17 09:46:37;;;;;;;20.65;6.03;;;;;;;;;;5004675;28;20509;-80
2022/01/17 09:49:14;;;;;;;26.55;6.57;;;;;;;;;;4986063;28;20112;-80
2022/01/17 09:52:04;;;;;;;26.00;6.10;;;;;;;;;;4986333;28;20058;-80
2022/01/17 09:54:30;;;;;;;30.85;6.00;;;;;;;;;;4987522;28;20108;-80
2022/01/17 09:56:58;;;;;;;24.98;6.25;;;;;;;;;;4983422;28;20089;-80
2022/01/17 09:59:24;;;;;;;32.95;6.60;;;;;;;;;;5005883;28;20034;-80
2022/01/17 10:01:50;;;;;;;20.20;5.35;;;;;;;;;;5004256;28;20421;-80
2022/01/17 10:04:17;;;;;;;23.23;6.35;;;;;;;;;;5006044;28;20129;-80
2022/01/17 10:06:54;;;;;;;26.88;7.00;;;;;;;;;;4992181;28;20057;-80
2022/01/17 10:09:24;;;;;;;26.85;6.72;;;;;;;;;;4980015;28;20125;-80
2022/01/17 10:12:06;;;;;;;21.73;6.07;;;;;;;;;;4983274;28;20469;-79
2022/01/17 10:14:43;;;;;;;24.95;6.03;;;;;;;;;;5008013;28;20123;-80
2022/01/17 10:17:11;;;;;;;30.13;6.60;;;;;;;;;;5007684;28;20057;-80
2022/01/17 10:19:38;;;;;;;28.80;6.20;;;;;;;;;;4988472;28;20210;-80
2022/01/17 10:22:16;;;;;;;24.88;5.78;;;;;;;;;;5005162;28;20101;-80
2022/01/17 10:24:56;;;;;;;27.50;6.00;;;;;;;;;;4984558;28;20406;-80
2022/01/17 10:27:48;;;;;;;28.60;6.00;;;;;;;;;;5004716;28;20108;-80
2022/01/17 10:35:21;;;;;;;24.88;6.47;;;;;;;;;;5007761;28;20046;-80
2022/01/17 10:38:07;;;;;;;26.10;5.85;;;;;;;;;;5007073;28;20069;-80
2022/01/17 10:40:36;;;;;;;30.80;7.25;;;;;;;;;;4993970;28;20184;-80
2022/01/17 10:43:04;;;;;;;28.75;6.35;;;;;;;;;;4995773;28;20125;-80
2022/01/17 10:45:33;;;;;;;26.42;6.35;;;;;;;;;;4990922;28;20054;-80
2022/01/17 10:48:01;;;;;;;23.50;5.85;;;;;;;;;;4988600;28;20057;-80
2022/01/17 10:50:35;;;;;;;24.55;6.57;;;;;;;;;;4990748;28;20053;-80
2022/01/17 10:53:03;;;;;;;29.98;6.80;;;;;;;;;;4976237;28;20086;-80
2022/01/17 10:55:31;;;;;;;24.85;6.90;;;;;;;;;;4989034;28;20049;-80
2022/01/17 10:58:05;;;;;;;26.67;7.03;;;;;;;;;;4994675;28;20038;-80
2022/01/17 11:00:35;;;;;;;28.52;6.82;;;;;;;;;;4992813;28;20122;-80
2022/01/17 11:03:06;;;;;;;30.67;7.25;;;;;;;;;;5011505;28;20045;-80
2022/01/17 11:05:33;;;;;;;26.45;7.13;;;;;;;;;;4989251;28;20463;-80
2022/01/17 11:08:02;;;;;;;36.08;8.70;;;;;;;;;;4989387;28;20165;-80
2022/01/17 11:10:57;;;;;;;33.72;7.18;;;;;;;;;;4993012;28;20069;-80
2022/01/17 11:13:24;;;;;;;41.30;7.90;;;;;;;;;;4980515;28;20050;-80
2022/01/17 11:15:54;;;;;;;29.55;8.00;;;;;;;;;;5005284;28;20054;-80
2022/01/17 11:18:23;;;;;;;29.23;7.00;;;;;;;;;;4975118;28;20050;-79
2022/01/17 11:20:51;;;;;;;33.03;7.85;;;;;;;;;;4976042;28;20600;-80
2022/01/17 11:23:21;;;;;;;38.97;8.27;;;;;;;;;;4985226;28;20057;-80
2022/01/17 11:25:52;;;;;;;27.35;6.57;;;;;;;;;;4980184;28;20116;-80
2022/01/17 11:28:21;;;;;;;27.58;7.10;;;;;;;;;;5003858;28;20504;-80
2022/01/17 11:30:48;;;;;;;31.80;7.20;;;;;;;;;;5012207;28;20045;-80
2022/01/17 11:33:14;;;;;;;32.60;8.02;;;;;;;;;;4993760;28;20042;-80
2022/01/17 11:35:42;;;;;;;29.70;7.45;;;;;;;;;;4992940;28;20403;-80
2022/01/17 11:38:12;;;;;;;42.08;9.68;;;;;;;;;;4992941;28;20058;-80
2022/01/17 11:40:39;;;;;;;31.42;7.07;;;;;;;;;;4981274;28;20386;-80
2022/01/17 11:43:18;;;;;;;30.73;7.22;;;;;;;;;;4988080;28;20048;-80
2022/01/17 11:45:44;;;;;;;31.17;8.02;;;;;;;;;;4994503;28;20038;-80
2022/01/17 11:48:22;;;;;;;30.55;7.40;;;;;;;;;;4992510;28;20076;-80
2022/01/17 11:50:49;;;;;;;35.25;8.60;;;;;;;;;;4992451;28;20371;-80
2022/01/17 11:53:15;;;;;;;35.42;8.38;;;;;;;;;;4980535;28;20126;-80
2022/01/17 11:55:44;;;;;;;35.55;7.90;;;;;;;;;;4992987;28;20038;-80
2022/01/17 11:58:21;;;;;;;35.28;7.60;;;;;;;;;;4995535;28;20409;-80
2022/01/17 12:00:48;;;;;;;34.63;8.50;;;;;;;;;;5001154;28;20058;-80
2022/01/17 12:03:30;;;;;;;30.05;7.82;;;;;;;;;;5003657;28;20133;-80
2022/01/17 12:06:02;;;;;;;29.23;7.80;;;;;;;;;;4980985;28;20042;-80
2022/01/17 12:08:29;;;;;;;29.05;7.60;;;;;;;;;;4991620;28;20053;-80
2022/01/17 12:11:08;;;;;;;31.63;7.50;;;;;;;;;;5004379;28;20042;-80
2022/01/17 12:13:41;;;;;;;31.48;8.07;;;;;;;;;;4970562;28;20056;-81
2022/01/17 12:16:31;;;;;;;31.92;7.63;;;;;;;;;;5002919;28;20046;-79
2022/01/17 12:19:00;;;;;;;30.95;7.57;;;;;;;;;;5005383;28;20057;-79
2022/01/17 12:21:28;;;;;;;33.03;7.78;;;;;;;;;;4988292;28;20049;-80
2022/01/17 12:24:13;;;;;;;27.67;8.30;;;;;;;;;;4993153;28;20187;-80
2022/01/17 12:26:39;;;;;;;37.17;7.88;;;;;;;;;;4978838;28;20133;-80
2022/01/17 12:29:05;;;;;;;28.08;8.23;;;;;;;;;;4987207;28;20048;-80
2022/01/17 12:31:43;;;;;;;31.38;8.15;;;;;;;;;;4990030;28;20057;-79
2022/01/17 12:34:20;;;;;;;30.52;8.20;;;;;;;;;;4988344;28;20039;-81
2022/01/17 12:36:50;;;;;;;31.63;7.30;;;;;;;;;;4983576;28;20050;-80
2022/01/17 12:39:21;;;;;;;30.83;8.57;;;;;;;;;;4986247;28;20049;-80
2022/01/17 12:41:49;;;;;;;37.50;9.30;;;;;;;;;;4994010;28;20521;-80
2022/01/17 12:44:17;;;;;;;33.60;8.45;;;;;;;;;;4993446;28;20042;-80
2022/01/17 12:46:44;;;;;;;27.83;7.78;;;;;;;;;;4986794;28;20406;-80
2022/01/17 12:49:11;;;;;;;30.63;8.43;;;;;;;;;;4992224;28;20453;-81
2022/01/17 12:51:44;;;;;;;31.20;8.85;;;;;;;;;;4974026;28;20095;-81
2022/01/17 12:54:19;;;;;;;30.60;8.35;;;;;;;;;;4989715;28;20054;-80
2022/01/17 12:56:46;;;;;;;31.60;7.35;;;;;;;;;;4989172;28;20065;-80
2022/01/17 12:59:13;;;;;;;28.95;7.75;;;;;;;;;;5011517;28;20052;-79
2022/01/17 13:01:47;;;;;;;25.02;7.18;;;;;;;;;;5009403;28;20049;-80
2022/01/17 13:04:14;;;;;;;28.80;7.80;;;;;;;;;;4994685;28;20045;-81
2022/01/17 13:06:41;;;;;;;27.83;7.53;;;;;;;;;;4995049;28;20072;-78
2022/01/17 13:09:11;;;;;;;27.00;7.80;;;;;;;;;;4978269;28;20046;-79
2022/01/17 13:11:41;;;;;;;21.77;6.85;;;;;;;;;;4977166;28;20046;-79
2022/01/17 13:14:07;;;;;;;28.08;7.55;;;;;;;;;;5001229;28;20117;-78
2022/01/17 13:16:38;;;;;;;30.25;8.13;;;;;;;;;;5014366;28;20137;-78
2022/01/17 13:19:05;;;;;;;25.77;7.30;;;;;;;;;;4997028;28;20504;-78
2022/01/17 13:21:31;;;;;;;33.75;7.82;;;;;;;;;;5013373;28;20065;-78
2022/01/17 13:24:02;;;;;;;30.13;8.15;;;;;;;;;;4994838;28;20197;-78
2022/01/17 13:26:30;;;;;;;25.13;6.22;;;;;;;;;;4994437;28;20511;-79
2022/01/17 13:29:00;;;;;;;27.13;7.25;;;;;;;;;;4983409;28;20045;-79
2022/01/17 13:31:30;;;;;;;25.02;6.75;;;;;;;;;;4995811;28;20046;-79
2022/01/17 13:34:10;;;;;;;30.90;7.10;;;;;;;;;;4989846;28;20043;-79
2022/01/17 13:36:36;;;;;;;29.58;7.53;;;;;;;;;;4990548;28;20442;-80
2022/01/17 13:39:07;;;;;;;22.65;7.32;;;;;;;;;;5013720;28;20490;-79
2022/01/17 13:41:34;;;;;;;25.95;7.07;;;;;;;;;;5013800;28;20049;-79
2022/01/17 13:44:00;;;;;;;27.58;7.95;;;;;;;;;;5011658;28;20046;-79
2022/01/17 13:46:29;;;;;;;24.30;6.78;;;;;;;;;;5013312;28;20064;-79
2022/01/17 13:48:58;;;;;;;30.38;7.75;;;;;;;;;;4997164;28;20417;-79
2022/01/17 13:51:25;;;;;;;27.80;6.93;;;;;;;;;;4986822;28;20038;-79
2022/01/17 13:53:55;;;;;;;29.05;7.50;;;;;;;;;;4993728;28;20050;-79
2022/01/17 13:56:21;;;;;;;32.13;7.90;;;;;;;;;;4985393;28;20046;-78
2022/01/17 13:58:50;;;;;;;25.42;6.57;;;;;;;;;;4995945;28;20092;-80
2022/01/17 14:01:17;;;;;;;23.60;7.22;;;;;;;;;;4977153;28;20486;-78
2022/01/17 14:03:49;;;;;;;31.00;8.57;;;;;;;;;;4976923;28;20050;-79
2022/01/17 14:06:16;;;;;;;29.60;8.27;;;;;;;;;;4977104;28;20056;-79
2022/01/17 14:08:50;;;;;;;26.80;7.80;;;;;;;;;;4976424;28;20054;-78
2022/01/17 14:11:18;;;;;;;27.77;7.60;;;;;;;;;;4978034;28;20053;-78
2022/01/17 14:13:50;;;;;;;25.25;7.63;;;;;;;;;;4992963;28;20050;-78
2022/01/17 14:16:35;;;;;;;29.58;8.73;;;;;;;;;;4985584;28;20058;-78
2022/01/17 14:19:08;;;;;;;28.40;6.60;;;;;;;;;;4994687;28;20046;-78
2022/01/17 14:21:36;;;;;;;30.92;7.28;;;;;;;;;;4993033;28;20113;-78
2022/01/17 14:24:05;;;;;;;29.70;6.57;;;;;;;;;;4993867;28;20494;-78
2022/01/17 14:26:31;;;;;;;28.75;7.65;;;;;;;;;;4993091;28;20058;-78
2022/01/17 14:29:00;;;;;;;29.98;7.47;;;;;;;;;;5011842;28;20455;-79
2022/01/17 14:31:37;;;;;;;26.33;7.20;;;;;;;;;;4995064;28;20056;-79
2022/01/17 14:34:13;;;;;;;30.13;8.07;;;;;;;;;;5012863;28;20037;-78
2022/01/17 14:36:40;;;;;;;35.42;8.10;;;;;;;;;;5012641;28;20497;-79
2022/01/17 14:39:07;;;;;;;33.65;8.27;;;;;;;;;;5013546;28;20042;-78
2022/01/17 14:41:35;;;;;;;32.40;7.78;;;;;;;;;;4988566;28;20050;-79
2022/01/17 14:44:07;;;;;;;33.38;8.90;;;;;;;;;;5000938;28;20053;-79
2022/01/17 14:46:34;;;;;;;34.88;8.25;;;;;;;;;;4992039;28;20090;-79
2022/01/17 14:49:00;;;;;;;25.83;7.35;;;;;;;;;;4974614;28;20086;-79
2022/01/17 14:51:31;;;;;;;33.60;8.02;;;;;;;;;;4977226;28;20169;-79
2022/01/17 14:54:01;;;;;;;32.78;7.82;;;;;;;;;;4993745;28;20050;-79
2022/01/17 15:02:00;;;;;;;37.53;8.05;;;;;;;;;;4993428;28;20054;-79
2022/01/17 15:04:27;;;;;;;35.22;8.90;;;;;;;;;;4997726;28;20107;-78